Terminal Aerodrome Forecast
Issued by NWS

Home | Current Version | Previous Version | Text Only | Print | Product List | Glossary On
Versions: 1 2 3 4 5 6 7 8 9 10 11 12 13 14 15 16 17 18 19
026
FTUS43 KGRR 100220 AAB
TAFMKG
TAF AMD
KMKG 100220Z 1002/1024 29012G17KT P6SM OVC040
      TEMPO 1002/1005 5SM -SN OVC030
     FM100500 28009KT 6SM -SN OVC040
     FM101200 28008KT 4SM -SN OVC025
     FM101800 27009KT 6SM -SN OVC050=

USA.gov is the U.S. government's official web portal to all federal, state and local government web resources and services.